Kansasville, WI

11:59 AM CST on March 04, 2015 (GMT -0600)
Gen Mitchell International | Change Station
CLOSE
Current Station
Airport
Location: Milwaukee,
Elevation: 692 ft
Nearby Weather Stations

Elev 692 ft 42.96 °N, 87.90 °W | Updated 7 minutes ago

Partly Cloudy
Partly Cloudy
18 °F
Feels Like 4 °F
N
15
Wind Variable Wind from WNW
Gusts 23 mph

Today
High -- | Low -- °F
--% Chance of Precip.
Yesterday
High -- | Low -- °F
Precip. -- in
6:23 AM 5:45 PM
Waxing Gibbous, 99% visible
Pressure 30.17 in
Visibility 10.0 miles
Clouds Scattered Clouds 10000 ft
Scattered Clouds 14000 ft
Windchill 4 °F
Dew Point 0 °F
Humidity 45%
Rainfall 0.00 in
Snow Depth Not available.
UV 4 out of 12
Pollen .70 out of 12
Air Quality Not available.
Flu Activity Not available.
METAR KMKE 041752Z 29013G20KT 10SM SCT100 SCT140 M08/M18 A3013 RMK AO2 SLP214 4/010 933018 T10781178 11078 21100 51020

More Conditions Fewer Conditions

Pressure 30.17 in
Visibility 10.0 miles
Clouds Scattered Clouds 10000 ft
Scattered Clouds 14000 ft
Windchill 4 °F
Dew Point 0 °F
Humidity 45%
Rainfall 0.00 in
Snow Depth Not available.
UV 4 out of 12
Pollen .70 out of 12
Air Quality Not available.
Flu Activity Not available.
METAR KMKE 041752Z 29013G20KT 10SM SCT100 SCT140 M08/M18 A3013 RMK AO2 SLP214 4/010 933018 T10781178 11078 21100 51020

More Conditions Fewer Conditions

10-Day Weather Forecast

Almanac

Astronomy

Mar. 04, 2015 Rise Set
Actual Time
Civil Twilight
Nautical Twilight
Astronomical Twilight
Moon
Length of Visible Light
Length of Day
Tomorrow will be .
, % of the Moon is Illuminated

Today's Extremes

State Highs State Lows

Community

WunderPhotos

Upload Photos

1,802,515 photos uploaded!

WunderBlogs® & News

Nearby

Air Quality

  Air Quality AQ Index Pollutant
Not available.

Snow Depth

Station Depth Elevation

Earthquake Activity

City Distance Mag. Time & Date
Minimum magnitude displayed is 2.5.

Coastal Water Temperatures

Place Temperature

Nearby Weather Stations